Tiempo atmosférico en la estación meteorológica de Sigüenza, Guadalajara (1044 m.)



Fecha
DESCASC
Temp. máxima en grados centígrados (hora)
DESCASC
Temp. mínima en grados centígrados (hora)
DESCASC
Temp. media en grados centígrados
DESCASC
Racha de viento máxima en m/sg (hora)
DESCASC
Velocidad máxima media en intervalos de 10 minutos(hora)
DESCASC
Precipitaciones diarias en mm
DESCASC
Precipitaciones de 00:00 a 06:00 en mm
DESCASC
Precipitaciones de 06:00 a 12:00 en mm
DESCASC
Precipitaciones de 12:00 a 18:00 en mm
DESCASC
Precipitaciones de 18:00 a 24:00 en mm
DESCASC
29-03-2020 17.3 (17:10) -2.9 (08:00) 7.2 8.61 (14:30) 4.17 (21:00) 0 0 0 0 0
28-03-2020 13.6 (15:20) -4.7 (06:00) 4.5 6.11 (13:30) 2.5 (12:00) 0 0 0 0 0
27-03-2020 10.6 (15:00) -1.5 (07:20) 4.6 9.72 (14:20) 3.89 (10:30) 0 0 0 0 0
26-03-2020 11.1 (15:40) -3.7 (-00:0) 3.7 10.56 (14:50) 4.17 (10:30) 0 0 0 0 0
25-03-2020 13.3 (14:00) -0.6 (-00:0) 6.4 11.94 (17:00) 3.89 (17:20) 0 0 0 0 0
24-03-2020 10.8 (15:40) 1.3 (00:00) 6.1 11.39 (10:20) 5 (11:10) 0 0 0 0 0
23-03-2020 10.4 (13:20) 4.9 (00:00) 7.6 9.44 (10:10) 3.89 (10:10) 0.4 0 0 0.4 0
22-03-2020 11.5 (15:50) 4.5 (05:20) 8 10.28 (16:10) 5 (16:10) 2.6 1 1.6 0 0
21-03-2020 9.2 (12:40) 5 (00:00) 7.1 6.11 (14:00) 3.06 (12:50) 1 0 0 0 1
20-03-2020 12.2 (16:30) 4.4 (00:00) 8.3 5.83 (13:40) 3.33 (13:40) 0 0 0 0 0
19-03-2020 16.7 (15:50) 1.9 (00:00) 9.3 6.67 (18:00) 2.78 (17:00) 0 0 0 0 0
18-03-2020 15.6 (13:40) 6.1 (00:00) 10.9 6.67 (02:50) 3.33 (00:20) 0 0 0 0 0
17-03-2020 11.9 (16:10) 3.8 (00:00) 7.8 11.67 (01:10) 5 (02:10) 8.2 4.4 3.6 0.2 0
16-03-2020 8 (00:00) 0.5 (00:00) 4.3 11.39 (23:59) 5.83 (19:20) 43.2 25.8 8.2 3.8 5.4
15-03-2020 17.9 (16:10) -0.6 (-00:0) 8.6 19.72 (20:50) 6.67 (15:30) 7.6 0 0 0 7.6
14-03-2020 19.8 (15:50) 1.6 (00:00) 10.7 5.83 (11:00) 2.78 (11:00) 0 0 0 0 0
13-03-2020 20.1 (15:00) 5.9 (23:59) 13 8.33 (09:30) 4.17 (10:10) 0 0 0 0 0
12-03-2020 24.3 (16:00) 1.8 (00:00) 13 7.78 (15:30) 3.61 (15:30) 0 0 0 0 0
11-03-2020 24.6 (16:00) 0.2 (00:00) 12.4 6.11 (15:40) 3.33 (14:10) 0 0 0 0 0
10-03-2020 20.6 (14:40) 0.5 (00:00) 10.6 8.89 (14:20) 3.61 (15:30) 0 0 0 0 0
09-03-2020 13.9 (15:40) 2.2 (00:00) 8 10.56 (13:30) 5 (13:10) 0 0 0 0 0
08-03-2020 14.4 (14:20) -4.6 (-00:0) 4.9 6.67 (15:20) 3.06 (14:30) 0 0 0 0 0
07-03-2020 12.3 (16:10) -0.6 (-00:0) 5.9 10.56 (12:30) 5 (10:00) 0 0 0 0 0
06-03-2020 8.4 (15:30) 2.4 (00:00) 5.4 13.61 (11:20) 5.83 (13:40) 0 0 0 0 0
05-03-2020 12.8 (14:10) 4.4 (00:00) 8.6 12.22 (10:30) 5.83 (10:40) 4 0 3.2 0 0.8
04-03-2020 15.2 (13:10) 4.8 (00:00) 10 9.17 (13:30) 5.56 (13:30) 0.4 0.4 0 0 0
03-03-2020 15.7 (17:10) 1.9 (00:00) 8.8 14.44 (15:40) 7.5 (14:00) 1 0 0.8 0.2 0
02-03-2020 9.3 (00:10) 2.2 (00:00) 5.8 22.5 (00:10) 10.56 (03:30) 12.8 9.6 2.8 0.4 0
01-03-2020 10.9 (16:00) 5.5 (00:00) 8.2 19.44 (22:50) 9.44 (23:20) 5.2 0 0.2 1.2 3.8
29-02-2020 10.6 (16:30) 0.2 (00:00) 5.4 13.89 (10:50) 8.33 (11:00) 0 0 0 0 0

Gráficas

Temp. máximas Temp. mínimas Temp. medias Precipitaciones Rachas de viento máximas Velocidades máximas media en intervalos de 10 minutos

Datos horarios

Fecha y hora oficial Temperatura (ºC) Velocidad del viento (km/h) Dirección del viento Racha (km/h) Dirección de racha Precipitación (mm) Presión (hPa) Tendencia (hPa) Humedad (%)
2020-03-29 23:00:00 6.5 8 Nordeste 25 Nordeste 0 902.1 0.9 70
2020-03-29 22:00:00 7.6 8 Nordeste 30 Norte 0 902 1.2 65
2020-03-29 21:00:00 9 15 Nordeste 29 Nordeste 0 901.8 1 55
2020-03-29 20:00:00 11.5 11 Nordeste 25 Norte 0 901.2 0.2 39
2020-03-29 19:00:00 15.6 9 Norte 25 Noroeste 0 900.8 -0.7 26
2020-03-29 18:00:00 16.7 8 Noroeste 26 Noroeste 0 900.8 -1.4 26
2020-03-29 17:00:00 16.6 12 Noroeste 28 Noroeste 0 901 -1.8 24
2020-03-29 16:00:00 16.5 9 Norte 30 Noroeste 0 901.5 -1.8 28
2020-03-29 15:00:00 14.8 10 Norte 31 Noroeste 0 902.2 -1.7 31
2020-03-29 14:00:00 15.8 9 Noroeste 25 Noroeste 0 902.8 -1.4 30
2020-03-29 13:00:00 15.1 6 Oeste 20 Oeste 0 903.3 -1.1 39
2020-03-29 12:00:00 12.8 9 Oeste 19 Sudoeste 0 903.9 -0.8 41
2020-03-29 11:00:00 8 2 Sur 6 Este 0 904.2 -0.2 66
2020-03-29 10:00:00 3.1 3 Este 8 Nordeste 0 904.4 0.4 87
2020-03-29 09:00:00 -1.4 3 Nordeste 6 Norte 0 904.7 0.7 95
2020-03-29 08:00:00 -2.8 4 Norte 6 Norte 0 904.4 0.2 95
2020-03-29 07:00:00 -2.7 3 Nordeste 6 Norte 0 904 -0.6 94
2020-03-29 06:00:00 -2.1 4 Nordeste 7 Nordeste 0 904 -0.8 94
2020-03-29 05:00:00 -2 5 Nordeste 8 Nordeste 0 904.2 -0.9 93
2020-03-29 03:00:00 -1.1 3 Nordeste 6 Nordeste 0 904.8 -0.2 92
2020-03-29 01:00:00 -0.4 2 Nordeste 5 Nordeste 0 905.1 0.3 90
2020-03-29 00:00:00 0.3 4 Nordeste 6 Nordeste 0 905.2 0.8 88
2020-03-28 23:00:00 1.4 3 Norte 5 Nordeste 0 905 1.3 84
2020-03-28 22:00:00 2.5 3 Nordeste 8 Norte 0 904.8 1.6 80
2020-03-28 21:00:00 4.3 4 Norte 6 Norte 0 904.4 1.6 74
2020-03-28 20:00:00 7.5 3 Nordeste 10 Nordeste 0 903.7 1.2 61
2020-03-28 19:00:00 11.1 5 Nordeste 16 Nordeste 0 903.2 0.9 46
2020-03-28 18:00:00 12.2 4 Nordeste 19 Nordeste 0 902.8 0.3 42
2020-03-28 17:00:00 12.5 6 Nordeste 22 Nordeste 0 902.5 -0.4 41
2020-03-28 16:00:00 12.8 6 Nordeste 17 Nordeste 0 902.3 -0.9 36
2020-03-28 15:00:00 13 5 Nordeste 18 Norte 0 902.5 -1.1 36
2020-03-28 14:00:00 12.2 9 Nordeste 22 Nordeste 0 902.9 -0.9 40
2020-03-28 13:00:00 12.4 7 Nordeste 21 Norte 0 903.2 -0.6 38
2020-03-28 12:00:00 11.3 9 Norte 18 Norte 0 903.6 0 40
2020-03-28 11:00:00 9.2 4 Nordeste 13 Norte 0 903.8 0.4 50
2020-03-28 10:00:00 5.6 0 Calma 8 Sur 0 903.8 0.7 67
2020-03-28 09:00:00 0.9 2 Sudeste 5 Nordeste 0 903.6 1 89
2020-03-28 08:00:00 -3 3 Nordeste 6 Nordeste 0 903.4 1.3 94
2020-03-28 07:00:00 -4.6 3 Este 7 Norte 0 903.1 1.2 95
2020-03-28 06:00:00 -4.7 0 Calma 5 Norte 0 902.6 0.7 93
2020-03-28 05:00:00 -4.2 0 Calma 2 Nordeste 0 902.1 0.2 92
2020-03-28 04:00:00 -3.4 2 Nordeste 4 Norte 0 901.9 0.4 92
2020-03-28 03:00:00 -2.7 4 Nordeste 10 Norte 0 901.9 0.5 91
2020-03-28 02:00:00 -2 3 Nordeste 9 Nordeste 0 901.9 0.8 90
2020-03-28 01:00:00 -1.2 5 Nordeste 8 Norte 0 901.5 0.6 88
2020-03-28 00:00:00 -0.7 3 Nordeste 13 Norte 0 901.4 1.1 86
2020-03-27 23:00:00 -0.2 7 Norte 13 Nordeste 0 901.1 1.7 83
2020-03-27 22:00:00 0.7 3 Nordeste 6 Norte 0 900.9 2.2 79
2020-03-27 21:00:00 2.6 2 Este 5 Nordeste 0 900.3 2.3 70
2020-03-27 20:00:00 5.2 3 Nordeste 17 Nordeste 0 899.4 1.7 58
2020-03-27 19:00:00 7.8 8 Nordeste 24 Nordeste 0 898.7 1.1 44
2020-03-27 18:00:00 9.3 8 Nordeste 27 Nordeste 0 898 0.4 34
2020-03-27 17:00:00 9.6 10 Nordeste 29 Nordeste 0 897.7 -0.3 36
2020-03-27 16:00:00 9.3 11 Nordeste 33 Nordeste 0 897.6 -0.8 38
2020-03-27 15:00:00 10.5 10 Nordeste 35 Nordeste 0 897.6 -1.1 36
2020-03-27 14:00:00 9.6 10 Nordeste 28 Nordeste 0 898 -0.7 39
2020-03-27 13:00:00 7.5 12 Nordeste 32 Norte 0 898.4 -0.1 49
2020-03-27 12:00:00 6.4 12 Nordeste 29 Nordeste 0 898.7 0.6 55
2020-03-27 11:00:00 5.1 13 Nordeste 27 Nordeste 0 898.7 0.7 58
2020-03-27 10:00:00 3.8 9 Nordeste 22 Nordeste 0 898.5 0.9 61
2020-03-27 09:00:00 1.8 10 Nordeste 22 Nordeste 0 898.1 0.9 70
2020-03-27 08:00:00 -0.3 8 Nordeste 14 Nordeste 0 898 1 82
2020-03-27 07:00:00 -1.4 4 Nordeste 12 Nordeste 0 897.6 0.7 85
2020-03-27 06:00:00 0 6 Nordeste 10 Nordeste 0 897.2 0.3 80
2020-03-27 05:00:00 0.4 5 Nordeste 14 Nordeste 0 897 -0.1 76
2020-03-27 04:00:00 0.6 7 Nordeste 17 Nordeste 0 896.9 -0.1 75
2020-03-27 03:00:00 0.8 6 Nordeste 19 Nordeste 0 896.9 -0.2 74
2020-03-27 02:00:00 1.6 7 Nordeste 21 Nordeste 0 897.1 0.2 69
2020-03-27 01:00:00 2 10 Nordeste 27 Nordeste 0 897 0.3 63
2020-03-27 00:00:00 2.5 10 Nordeste 22 Nordeste 0 897.1 0.2 64
2020-03-26 23:00:00 1.2 8 Nordeste 15 Nordeste 0 896.9 0.6 69
2020-03-26 22:00:00 2.1 2 Este 13 Nordeste 0 896.7 1.1 63
2020-03-26 21:00:00 3.4 6 Nordeste 13 Nordeste 0 896.9 1.8 60
2020-03-26 20:00:00 4.3 4 Nordeste 9 Nordeste 0 896.3 1.6 59
2020-03-26 19:00:00 6 4 Nordeste 13 Nordeste 0 895.6 0.9 49
2020-03-26 18:00:00 8 5 Nordeste 20 Norte 0 895.1 0.3 41
2020-03-26 17:00:00 9.1 10 Norte 28 Nordeste 0 894.7 -0.4 34
2020-03-26 16:00:00 10.1 13 Norte 31 Nordeste 0 894.7 -0.8 31
2020-03-26 15:00:00 10.2 15 Norte 38 Norte 0 894.8 -1 37
2020-03-26 14:00:00 8.8 10 Nordeste 27 Norte 0 895.1 -1 44
2020-03-26 13:00:00 8.2 9 Norte 33 Noroeste 0 895.5 -0.8 47
2020-03-26 12:00:00 7.8 13 Norte 33 Noroeste 0 895.8 -0.7 49
2020-03-26 11:00:00 7.3 13 Noroeste 32 Noroeste 0 896.1 -0.5 52
2020-03-26 10:00:00 5.4 10 Noroeste 25 Noroeste 0 896.3 -0.3 60
2020-03-26 09:00:00 1.2 3 Sur 10 Sudoeste 0 896.5 -0.2 75
2020-03-26 08:00:00 -2.3 5 Sudoeste 9 Sudoeste 0 896.6 -0.1 92
2020-03-26 07:00:00 -3.6 5 Norte 7 Norte 0 896.6 -0.6 93
2020-03-26 06:00:00 -3.2 0 Calma 4 Oeste 0 896.7 -0.5 94
2020-03-26 05:00:00 -2.6 0 Calma 9 Norte 0 896.7 -1.2 93
2020-03-26 04:00:00 -2.1 4 Norte 8 Norte 0 897.2 -1.1 97
2020-03-26 03:00:00 -1.6 3 Nordeste 6 Norte 0 897.2 -1.4 96
2020-03-26 02:00:00 -0.9 2 Norte 5 Nordeste 0 897.9 -0.8 95
2020-03-26 01:00:00 0.1 0 Calma 7 Nordeste 0 898.3 -0.4 94
2020-03-26 00:00:00 0.7 2 Nordeste 5 Norte 0 898.6 -0.2 94
2020-03-25 23:00:00 1.4 4 Norte 7 Norte 0 898.7 0 92
2020-03-25 22:00:00 2.7 3 Nordeste 6 Nordeste 0 898.7 0.1 90
2020-03-25 21:00:00 4.4 3 Nordeste 6 Norte 0 898.8 0.3 86
2020-03-25 20:00:00 7.2 3 Este 10 Nordeste 0 898.7 0.5 77
2020-03-25 19:00:00 8.5 5 Nordeste 17 Nordeste 0 898.6 0 70
2020-03-25 18:00:00 9.4 8 Nordeste 31 Nordeste 0 898.5 -0.7 65
2020-03-25 17:00:00 13.2 9 Noroeste 43 Norte 0 898.2 -1.4 47
2020-03-25 16:00:00 12.3 6 Oeste 29 Norte 0 898.6 -1.8 48
2020-03-25 15:00:00 12.5 10 Noroeste 22 Norte 0 899.2 -1.6 46
2020-03-25 14:00:00 13.1 6 Noroeste 22 Noroeste 0 899.6 -1.8 42
2020-03-25 13:00:00 10.9 6 Oeste 23 Oeste 0 900.4 -1.2 54
2020-03-25 12:00:00 9.6 7 Sudoeste 18 Sur 0 900.8 -0.8 68
2020-03-25 11:00:00 8.6 10 Sur 19 Sur 0 901.4 -0.2 73
2020-03-25 10:00:00 5.9 8 Sudoeste 18 Sudoeste 0 901.6 0.3 87
2020-03-25 09:00:00 5.1 7 Sudoeste 16 Sudoeste 0 901.6 0.2 91
2020-03-25 08:00:00 4.1 6 Sudoeste 12 Sudoeste 0 901.6 0 96
2020-03-25 07:00:00 2 2 Sudoeste 5 Sudoeste 0 901.3 -0.5 96
2020-03-25 06:00:00 1.4 3 Norte 5 Nordeste 0 901.4 -0.7 97
2020-03-25 05:00:00 0.6 0 Calma 4 Norte 0 901.6 -0.8 97
2020-03-25 04:00:00 0.3 0 Calma 10 Norte 0 901.8 -0.6 97
2020-03-25 03:00:00 -0.5 0 Calma 5 Norte 0 902.1 -0.3 97
2020-03-25 02:00:00 -0.2 2 Norte 7 Norte 0 902.4 -0.3 96
2020-03-25 01:00:00 0.7 5 Norte 10 Nordeste 0 902.4 -0.6 95
2020-03-25 00:00:00 1.4 5 Norte 10 Nordeste 0 902.4 -0.4 95
2020-03-24 23:00:00 2.2 5 Nordeste 10 Norte 0 902.7 0.2 93
2020-03-24 22:00:00 3.4 4 Nordeste 6 Nordeste 0 903 0.7 90
2020-03-24 21:00:00 5.3 2 Este 10 Nordeste 0 902.8 0.8 83
2020-03-24 20:00:00 7.8 5 Nordeste 18 Este 0 902.5 0.7 76
2020-03-24 19:00:00 8.7 7 Nordeste 26 Nordeste 0 902.3 0.4 72
2020-03-24 18:00:00 9.4 10 Nordeste 26 Nordeste 0 902 -0.1 68
2020-03-24 17:00:00 10 13 Nordeste 28 Nordeste 0 901.8 -0.8 68
2020-03-24 16:00:00 9.7 14 Nordeste 32 Nordeste 0 901.9 -1.2 70
2020-03-24 15:00:00 10.1 12 Nordeste 32 Nordeste 0 902.1 -1.1 66
2020-03-24 14:00:00 10.1 13 Nordeste 28 Nordeste 0 902.6 -0.7 67
2020-03-24 13:00:00 9.8 13 Nordeste 29 Este 0 903.1 -0.1 66
2020-03-24 12:00:00 9.3 13 Nordeste 35 Nordeste 0 903.2 0.2 67
2020-03-24 11:00:00 8.7 15 Nordeste 41 Nordeste 0 903.3 0.2 73
2020-03-24 10:00:00 7.8 16 Nordeste 36 Nordeste 0 903.2 0.4 79
2020-03-24 09:00:00 7.2 12 Nordeste 31 Nordeste 0 903 0.4 84
2020-03-24 08:00:00 6.4 10 Nordeste 29 Nordeste 0 903.1 0.7 87
2020-03-24 07:00:00 5.8 8 Nordeste 21 Norte 0 902.8 -0.1 89
2020-03-24 06:00:00 6 10 Nordeste 23 Nordeste 0 902.6 -0.2 87
2020-03-24 05:00:00 6.3 10 Nordeste 20 Nordeste 0 902.4 -0.6 89
2020-03-24 04:00:00 5.6 5 Nordeste 14 Nordeste 0 902.9 -0.4 92
2020-03-24 03:00:00 5.4 5 Nordeste 15 Nordeste 0 902.8 -0.6 93
2020-03-24 02:00:00 5.5 6 Nordeste 17 Nordeste 0 903 -0.2 92
2020-03-24 01:00:00 5.4 8 Nordeste 15 Nordeste 0 903.3 0.2 93
2020-03-24 00:00:00 5.8 6 Nordeste 12 Nordeste 0 903.4 0.7 92
2020-03-23 23:00:00 5.3 4 Este 12 Nordeste 0 903.2 0.8 93
2020-03-23 22:00:00 6 4 Nordeste 11 Nordeste 0 903.1 1.1 91
2020-03-23 21:00:00 7.1 5 Nordeste 22 Nordeste 0 902.7 1.1 88
2020-03-23 20:00:00 8.3 9 Nordeste 23 Nordeste 0 902.4 1 83
2020-03-23 19:00:00 9.4 14 Nordeste 32 Nordeste 0 902 0.5 79
2020-03-23 18:00:00 9.3 7 Nordeste 22 Norte 0 901.6 0.2 78
2020-03-23 17:00:00 9.6 10 Nordeste 26 Nordeste 0 901.4 -0.5 79
2020-03-23 16:00:00 9.3 10 Nordeste 31 Nordeste 0 901.5 -1.1 79
2020-03-23 15:00:00 10.1 11 Nordeste 27 Norte 0 901.4 -1.2 75
2020-03-23 14:00:00 10.1 10 Nordeste 27 Nordeste 0.2 901.9 -0.5 75
2020-03-23 13:00:00 8.8 8 Nordeste 22 Este 0.2 902.6 0.4 83
2020-03-23 12:00:00 9.3 9 Nordeste 30 Nordeste 0 902.6 0.9 75
2020-03-23 11:00:00 8.6 14 Nordeste 34 Nordeste 0 902.4 1 72
2020-03-23 10:00:00 8.5 12 Nordeste 30 Nordeste 0 902.2 1.2 77
2020-03-23 09:00:00 7.3 12 Nordeste 30 Nordeste 0 901.7 1 81
2020-03-23 08:00:00 6.3 8 Nordeste 19 Nordeste 0 901.4 1 87
2020-03-23 07:00:00 5.8 8 Nordeste 20 Nordeste 0 901 0.7 88
2020-03-23 06:00:00 6.1 8 Nordeste 18 Nordeste 0 900.7 0.4 88
2020-03-23 05:00:00 6.3 7 Nordeste 17 Nordeste 0 900.4 0 89
2020-03-23 04:00:00 6.6 5 Nordeste 18 Nordeste 0 900.3 -0.1 89
2020-03-23 03:00:00 6.6 6 Nordeste 13 Norte 0 900.3 -0.3 89
2020-03-23 02:00:00 6.6 8 Nordeste 14 Norte 0 900.4 -0.2 89
2020-03-23 01:00:00 6.1 5 Nordeste 8 Nordeste 0 900.4 0.2 90
2020-03-23 00:00:00 5.9 5 Nordeste 10 Nordeste 0 900.6 0.9 87
2020-03-22 23:00:00 5.7 3 Nordeste 7 Nordeste 0 900.6 1.4 86
2020-03-22 22:00:00 6.7 0 Calma 10 Este 0 900.2 1.6 83
2020-03-22 21:00:00 7 5 Este 17 Nordeste 0 899.7 1.8 77
2020-03-22 20:00:00 8.6 8 Nordeste 19 Nordeste 0 899.2 1.6 70
2020-03-22 19:00:00 9.3 11 Nordeste 33 Nordeste 0 898.6 1.2 68
2020-03-22 18:00:00 9.9 12 Nordeste 33 Nordeste 0 897.9 0.4 68
2020-03-22 17:00:00 10.3 13 Nordeste 37 Nordeste 0 897.6 -0.1 65
2020-03-22 16:00:00 10.8 14 Nordeste 35 Nordeste 0 897.4 -0.7 59
2020-03-22 15:00:00 10.4 10 Nordeste 33 Nordeste 0 897.5 -0.7 61
2020-03-22 14:00:00 11.3 11 Nordeste 30 Nordeste 0 897.7 -0.7 60
2020-03-22 13:00:00 10.5 13 Nordeste 28 Nordeste 0 898.1 -0.3 64
2020-03-22 12:00:00 9.8 12 Nordeste 25 Norte 0 898.2 0.2 69
2020-03-22 11:00:00 8.6 7 Nordeste 16 Nordeste 0 898.4 0.6 77
2020-03-22 10:00:00 6.6 3 Nordeste 6 Nordeste 0 898.4 0.8 87
2020-03-22 09:00:00 5.5 3 Nordeste 6 Nordeste 0.2 898 0.6 94
2020-03-22 08:00:00 5 3 Nordeste 8 Nordeste 0.4 897.8 0.7 96
2020-03-22 07:00:00 4.8 4 Nordeste 6 Nordeste 1 897.6 0.4 96
2020-03-22 06:00:00 4.7 0 Calma 3 Sur 0.2 897.4 -0.2 96
2020-03-22 05:00:00 4.6 0 Calma 4 Sur 0 897.1 -0.8 95
2020-03-22 04:00:00 4.8 0 Calma 4 Nordeste 0.2 897.2 -1 95
2020-03-22 03:00:00 4.9 0 Calma 5 Nordeste 0.2 897.6 -1 95
2020-03-22 02:00:00 5 2 Este 5 Sudoeste 0.2 897.9 -0.8 94
2020-03-22 01:00:00 5.1 4 Sur 9 Sur 0.2 898.2 -0.3 93
2020-03-22 00:00:00 5.4 2 Sur 8 Sudoeste 0.2 898.6 0.4 93
2020-03-21 23:00:00 5.5 6 Sudoeste 15 Sur 0.8 898.7 0.8 90
2020-03-21 22:00:00 6.3 4 Sudoeste 14 Sur 0 898.5 1 89
2020-03-21 21:00:00 6.5 7 Sudoeste 15 Sudoeste 0 898.2 1 92
2020-03-21 20:00:00 6.7 6 Sudoeste 15 Sudoeste 0 897.9 0.6 93
2020-03-21 19:00:00 7.9 8 Sur 14 Sur 0 897.5 0 87
2020-03-21 18:00:00 8.1 5 Sur 13 Sudeste 0 897.2 -0.5 87
2020-03-21 17:00:00 8.4 6 Sudeste 17 Sudoeste 0 897.3 -0.9 83
2020-03-21 16:00:00 8.6 9 Sur 18 Sudeste 0 897.5 -1.1 81
2020-03-21 15:00:00 8.8 10 Sur 19 Sudoeste 0 897.7 -1.2 81
2020-03-21 14:00:00 8.7 11 Sudeste 22 Sudeste 0 898.2 -1.1 78
2020-03-21 13:00:00 9 11 Sur 20 Sur 0 898.6 -0.7 74
2020-03-21 12:00:00 8.2 7 Sur 21 Sur 0 898.9 -0.1 77
2020-03-21 11:00:00 8.1 9 Sudeste 21 Sudeste 0 899.3 0.3 75
2020-03-21 10:00:00 7.9 6 Sudeste 14 Sudeste 0 899.3 0.3 76
2020-03-21 09:00:00 7.3 4 Este 9 Este 0 899 -0.1 82
2020-03-21 08:00:00 6.3 4 Norte 6 Nordeste 0 899 -0.4 91
2020-03-21 07:00:00 6.2 2 Este 5 Este 0 899 -0.8 90
2020-03-21 06:00:00 6.6 0 Calma 5 Sur 0 899.1 -1.4 89
2020-03-21 05:00:00 6.8 4 Sur 13 Sudoeste 0 899.4 -1.3 87
2020-03-21 04:00:00 7 5 Sudoeste 11 Sudoeste 0 899.8 -0.9 87
2020-03-21 03:00:00 6.6 4 Sur 9 Sudoeste 0 900.5 -0.8 93
2020-03-21 02:00:00 6.2 3 Sudoeste 7 Este 0 900.7 -0.7 94
2020-03-21 01:00:00 5.5 4 Nordeste 7 Nordeste 0 900.7 -0.9 92
2020-03-21 00:00:00 5 3 Norte 5 Nordeste 0 901.3 -0.4 92
2020-03-20 23:00:00 6.5 0 Calma 6 Nordeste 0 901.4 -0.3 89
2020-03-20 22:00:00 7.2 0 Calma 3 Este 0 901.6 -0.1 87
2020-03-20 21:00:00 7.1 0 Calma 4 Este 0 901.7 0.3 85
2020-03-20 20:00:00 8.4 0 Calma 7 Sudoeste 0 901.7 0 79
2020-03-20 19:00:00 9.6 4 Oeste 15 Oeste 0 901.7 0 72
2020-03-20 18:00:00 10.9 8 Sudoeste 19 Sudoeste 0 901.4 -0.9 67
2020-03-20 17:00:00 11.5 8 Sudoeste 20 Sudoeste 0 901.7 -0.8 64
2020-03-20 16:00:00 11.4 8 Sudoeste 21 Sudeste 0 901.7 -1 67
2020-03-20 15:00:00 10.3 12 Sur 19 Sur 0 902.3 -0.9 72
2020-03-20 14:00:00 10.2 7 Sudeste 21 Sur 0 902.5 -0.7 69
2020-03-20 13:00:00 9.9 5 Sudoeste 18 Sudoeste 0 902.7 -0.7 71
2020-03-20 12:00:00 9.6 10 Sudoeste 18 Sudoeste 0 903.2 0 75
2020-03-20 11:00:00 9.1 10 Sur 20 Sudoeste 0 903.2 0.3 74
2020-03-20 10:00:00 8 8 Sur 16 Sudeste 0 903.4 0.8 78
2020-03-20 09:00:00 7.2 5 Sudoeste 11 Sudoeste 0 903.2 0.6 83
2020-03-20 08:00:00 6.8 2 Sur 6 Sudoeste 0 902.9 0.1 86
2020-03-20 07:00:00 6.7 0 Calma 8 Sur 0 902.6 -0.4 85
2020-03-20 06:00:00 6.8 0 Calma 4 Sur 0 902.6 -0.8 89
2020-03-20 05:00:00 6.8 2 Sur 11 Sudoeste 0 902.8 -0.7 87
2020-03-20 04:00:00 6.6 3 Sur 6 Sudoeste 0 903 -0.8 92
2020-03-20 03:00:00 6.1 2 Nordeste 8 Norte 0 903.4 -0.7 93
2020-03-20 02:00:00 5.5 4 Norte 6 Nordeste 0 903.5 -0.6 93
2020-03-20 01:00:00 4.8 3 Norte 5 Norte 0 903.8 -0.4 93
2020-03-20 00:00:00 4.9 2 Norte 4 Norte 0 904.1 0.1 91
2020-03-19 23:00:00 6.1 0 Calma 8 Norte 0 904.1 0.1 87
2020-03-19 22:00:00 7.2 3 Este 11 Nordeste 0 904.2 0.6 83
2020-03-19 21:00:00 8.7 4 Nordeste 13 Norte 0 904 0.6 78
2020-03-19 20:00:00 10.3 5 Norte 13 Norte 0 904 0.5 71
2020-03-19 19:00:00 12.2 7 Nordeste 21 Nordeste 0 903.6 -0.3 66
2020-03-19 18:00:00 14.1 10 Nordeste 24 Norte 0 903.4 -1.1 53
2020-03-19 17:00:00 15.4 10 Nordeste 21 Nordeste 0 903.5 -2 48
2020-03-19 16:00:00 16.2 5 Norte 14 Este 0 903.9 -2.5 41
2020-03-19 15:00:00 16.3 5 Oeste 18 Sur 0 904.5 -2.5 47
2020-03-19 14:00:00 14.9 8 Sudoeste 18 Sur 0 905.5 -2 55
2020-03-19 13:00:00 13.8 3 Oeste 17 Sudoeste 0 906.4 -1.4 60
2020-03-19 12:00:00 12.5 8 Sudoeste 16 Sur 0 907 -0.6 69
2020-03-19 11:00:00 11 3 Sur 6 Norte 0 907.5 -0.2 71
2020-03-19 10:00:00 7.5 3 Nordeste 9 Nordeste 0 907.8 0.3 81
2020-03-19 09:00:00 4.9 4 Nordeste 10 Nordeste 0 907.6 0.3 94
2020-03-19 08:00:00 2.6 0 Calma 8 Nordeste 0 907.7 0.3 98
2020-03-19 07:00:00 2 5 Nordeste 10 Nordeste 0 907.5 -0.1 98
2020-03-19 06:00:00 2.5 4 Nordeste 9 Norte 0 907.3 -1.1 98
2020-03-19 05:00:00 4.5 3 Nordeste 11 Nordeste 0 907.4 -1.5 98
2020-03-19 04:00:00 4.3 5 Nordeste 10 Nordeste 0 907.6 -1.6 97
2020-03-19 03:00:00 5.2 3 Nordeste 10 Este 0 908.4 -1.1 96
2020-03-19 02:00:00 6.6 5 Este 12 Norte 0 908.9 -0.7 96
2020-03-19 01:00:00 6.6 4 Nordeste 11 Norte 0 909.2 -0.6 95
2020-03-19 00:00:00 7.7 3 Nordeste 13 Nordeste 0 909.5 -0.2 92
2020-03-18 23:00:00 8.8 7 Nordeste 15 Nordeste 0 909.6 -0.1 91
2020-03-18 22:00:00 9.1 5 Nordeste 13 Nordeste 0 909.8 0.3 89
2020-03-18 21:00:00 9.6 7 Nordeste 12 Nordeste 0 909.7 0.4 86
2020-03-18 20:00:00 10.1 3 Este 14 Nordeste 0 909.7 0.4 84
2020-03-18 19:00:00 11.7 5 Nordeste 17 Nordeste 0 909.5 -0.1 79
2020-03-18 18:00:00 12.9 8 Nordeste 22 Norte 0 909.3 -0.4 71
2020-03-18 17:00:00 13.2 10 Nordeste 21 Nordeste 0 909.3 -0.9 71
2020-03-18 16:00:00 14 11 Nordeste 21 Nordeste 0 909.6 -1.4 68
2020-03-18 15:00:00 15.2 8 Nordeste 19 Nordeste 0 909.7 -1.8 65
2020-03-18 14:00:00 15.4 6 Nordeste 20 Norte 0 910.2 -1.8 62
2020-03-18 13:00:00 13.9 11 Norte 21 Norte 0 911 -1.2 68
2020-03-18 12:00:00 13.2 10 Nordeste 21 Nordeste 0 911.5 -0.6 68
2020-03-18 11:00:00 10.6 9 Nordeste 22 Nordeste 0 912 0 75
2020-03-18 10:00:00 9.2 10 Nordeste 21 Nordeste 0 912.2 0.4 77
2020-03-18 09:00:00 7.9 6 Norte 15 Nordeste 0 912.1 0.4 85
2020-03-18 08:00:00 6.8 5 Nordeste 16 Nordeste 0 912 0.3 90
2020-03-18 07:00:00 6.6 6 Nordeste 16 Nordeste 0 911.8 0.2 92
2020-03-18 06:00:00 6.1 7 Nordeste 15 Nordeste 0 911.7 -0.3 94
2020-03-18 05:00:00 6.3 6 Nordeste 14 Nordeste 0 911.7 -0.5 92
2020-03-18 04:00:00 6.7 6 Nordeste 22 Nordeste 0 911.6 -1.1 91
2020-03-18 03:00:00 7.2 10 Nordeste 24 Nordeste 0 912 -1 90
2020-03-18 02:00:00 7.4 10 Nordeste 23 Nordeste 0 912.2 -1 91
2020-03-18 01:00:00 7.9 6 Nordeste 24 Norte 0 912.7 -0.3 91
2020-03-18 00:00:00 8.1 10 Nordeste 24 Nordeste 0 913 0.4 90
2020-03-17 23:00:00 8.4 10 Nordeste 28 Nordeste 0 913.2 1.1 91
2020-03-17 22:00:00 8.4 12 Nordeste 22 Nordeste 0 913 1.6 90
2020-03-17 21:00:00 8.3 9 Nordeste 21 Nordeste 0 912.6 1.3 90
2020-03-17 20:00:00 8.3 9 Nordeste 23 Nordeste 0 912.1 1.1 90
2020-03-17 19:00:00 8.9 10 Nordeste 31 Nordeste 0 911.4 0.5 91
2020-03-17 18:00:00 9.6 10 Nordeste 25 Nordeste 0 911.3 0.5 90
2020-03-17 17:00:00 10.1 10 Nordeste 28 Nordeste 0 911 0.1 89
2020-03-17 16:00:00 11.5 10 Este 28 Este 0 910.9 -0.1 79
2020-03-17 15:00:00 10.5 11 Nordeste 27 Nordeste 0 910.8 -0.1 86
2020-03-17 14:00:00 9.3 13 Nordeste 33 Nordeste 0 910.9 0.3 89
2020-03-17 13:00:00 8.9 11 Nordeste 28 Nordeste 0.2 911 1 90
2020-03-17 12:00:00 8.5 13 Nordeste 27 Nordeste 0 910.9 1.4 90
2020-03-17 11:00:00 7.6 12 Nordeste 27 Este 0.6 910.6 2 94
2020-03-17 10:00:00 6.9 8 Nordeste 22 Nordeste 0 910 2.1 96
2020-03-17 09:00:00 6.6 8 Nordeste 17 Nordeste 1 909.5 2.5 96
2020-03-17 08:00:00 6.2 4 Nordeste 23 Nordeste 1.2 908.6 2 96
2020-03-17 07:00:00 6.2 10 Nordeste 24 Nordeste 0.8 907.9 2.4 95
2020-03-17 06:00:00 5.8 9 Nordeste 24 Nordeste 2.2 907 1.6 95
2020-03-17 05:00:00 6 12 Nordeste 27 Nordeste 1.6 906.6 1.7 95
2020-03-17 04:00:00 5.8 13 Nordeste 37 Nordeste 0 905.5 0.8 95
2020-03-17 03:00:00 5.5 14 Nordeste 41 Nordeste 0 905.4 1 97
2020-03-17 02:00:00 5.1 15 Nordeste 42 Nordeste 0.6 904.9 1.3 98
2020-03-17 01:00:00 4.5 15 Nordeste 32 Nordeste 0 904.7 1.5 98
2020-03-17 00:00:00 3.9 17 Nordeste 41 Nordeste 0 904.4 1.6 98
2020-03-16 23:00:00 3.1 12 Nordeste 32 Nordeste 0.2 903.6 1.6 98
2020-03-16 22:00:00 2.5 7 Nordeste 21 Nordeste 0.4 903.2 1.9 96
2020-03-16 21:00:00 2.4 6 Nordeste 21 Nordeste 0 902.8 2 95
2020-03-16 20:00:00 2.1 13 Nordeste 37 Norte 2.2 902 1.8 96
2020-03-16 19:00:00 2.1 14 Nordeste 31 Nordeste 2.6 901.3 0.9 96
2020-03-16 18:00:00 1.8 6 Nordeste 15 Nordeste 0.8 900.8 0.5 97
2020-03-16 17:00:00 0.6 5 Nordeste 14 Nordeste 0.2 900.2 -0.2 98
2020-03-16 16:00:00 1.6 4 Nordeste 15 Nordeste 1 900.4 0.8 95
2020-03-16 15:00:00 1.8 5 Nordeste 21 Nordeste 1 900.3 1 97
2020-03-16 14:00:00 1.4 10 Nordeste 33 Nordeste 0.8 900.4 2.3 96
2020-03-16 13:00:00 2.5 10 Nordeste 31 Nordeste 0 899.6 1.5 93
2020-03-16 12:00:00 2.5 14 Nordeste 38 Nordeste 1.2 899.3 1.2 92
2020-03-16 11:00:00 2.3 13 Nordeste 36 Norte 1.8 898.1 0.9 92
2020-03-16 10:00:00 0.9 13 Nordeste 26 Nordeste 0.4 898.1 1.6 98
2020-03-16 09:00:00 1.2 8 Nordeste 24 Norte 1.2 898.1 2.5 95
2020-03-16 08:00:00 2 2 Oeste 17 Norte 1.4 897.2 2.1 95
2020-03-16 07:00:00 3.4 4 Nordeste 10 Norte 2.2 896.5 1.1 94
2020-03-16 06:00:00 4 5 Nordeste 9 Nordeste 4 895.6 0 95
2020-03-16 05:00:00 4.4 6 Oeste 20 Sudoeste 8 895.1 -1.2 90
2020-03-16 04:00:00 5.9 6 Oeste 21 Sudoeste 4.6 895.4 -1.3 90
2020-03-16 03:00:00 7.2 5 Sudoeste 25 Sur 5.2 895.6 -1.6 93
2020-03-16 02:00:00 7.4 13 Sur 31 Sudoeste 2.6 896.3 -1.5 91
2020-03-16 01:00:00 7.7 9 Sur 29 Sur 1.4 896.7 -1.3 90
2020-03-16 00:00:00 8 18 Sur 39 Sudeste 1.4 897.2 -1.3 86
2020-03-15 23:00:00 8.1 11 Sur 39 Sudoeste 1.2 897.8 0.7 86
2020-03-15 22:00:00 8.4 14 Sur 29 Sur 3.2 898 1.2 86
2020-03-15 21:00:00 8.7 10 Sudoeste 71 Oeste 1.6 898.5 1.4 85
2020-03-15 20:00:00 11.5 10 Sur 22 Sur 0 897.1 -0.4 70
2020-03-15 19:00:00 12.5 17 Sur 48 Sur 0.2 896.8 -1.2 69
2020-03-15 18:00:00 14.4 22 Sur 49 Sur 0 897.1 -1.2 61
2020-03-15 17:00:00 15.8 16 Sur 41 Sur 0 897.5 -2 59
2020-03-15 16:00:00 17.6 22 Sudoeste 39 Sur 0 898 -2.8 45
2020-03-15 15:00:00 17 18 Sudoeste 36 Sur 0 898.3 -3.4 48
2020-03-15 14:00:00 17.1 11 Sudoeste 31 Sur 0 899.5 -2.7 57
2020-03-15 13:00:00 15.6 19 Sur 33 Sur 0 900.8 -1.9 62
2020-03-15 12:00:00 15 17 Sur 28 Sur 0 901.7 -1.2 64
2020-03-15 11:00:00 12.7 9 Sudoeste 18 Sur 0 902.2 -0.7 71
2020-03-15 10:00:00 7.5 0 Calma 6 Nordeste 0 902.7 -0.2 82
2020-03-15 09:00:00 3.2 3 Nordeste 5 Norte 0 902.9 -0.1 88
2020-03-15 08:00:00 0.1 4 Nordeste 6 Norte 0 902.9 -0.3 90
2020-03-15 07:00:00 -0.5 2 Este 4 Nordeste 0 902.9 -0.5 90
2020-03-15 06:00:00 -0.3 0 Calma 4 Norte 0 903 -1.1 89
2020-03-15 05:00:00 0.2 0 Calma 9 Norte 0 903.2 -1.3 86
2020-03-15 04:00:00 0.8 4 Nordeste 10 Norte 0 903.4 -1.5 82
2020-03-15 03:00:00 1.2 3 Nordeste 10 Nordeste 0 904.1 -1.2 81
2020-03-15 02:00:00 1.6 4 Nordeste 10 Nordeste 0 904.5 -0.9 80
2020-03-15 01:00:00 2.2 7 Norte 12 Norte 0 904.9 -0.4 75
2020-03-15 00:00:00 2.8 6 Nordeste 9 Nordeste 0 905.3 0.1 73
2020-03-14 23:00:00 3.9 7 Nordeste 10 Nordeste 0 905.4 0.5 68
2020-03-14 22:00:00 5.1 3 Nordeste 10 Norte 0 905.3 0.7 63
2020-03-14 21:00:00 7.2 5 Nordeste 11 Nordeste 0 905.2 0.9 57
2020-03-14 20:00:00 9.5 5 Nordeste 8 Nordeste 0 904.9 0.7 48
2020-03-14 19:00:00 13.8 4 Este 9 Nordeste 0 904.6 0.2 36
2020-03-14 18:00:00 18.2 5 Norte 15 Norte 0 904.3 -0.6 21
2020-03-14 17:00:00 19 6 Norte 17 Norte 0 904.2 -1.4 19
2020-03-14 16:00:00 19 6 Nordeste 13 Nordeste 0 904.4 -2 24
2020-03-14 15:00:00 19.5 4 Este 13 Sudeste 0 904.9 -1.8 25
2020-03-14 14:00:00 18.3 4 Sudoeste 14 Nordeste 0 905.6 -1.5 26
2020-03-14 13:00:00 16.6 7 Nordeste 21 Norte 0 906.4 -0.7 26
2020-03-14 12:00:00 14.7 8 Nordeste 17 Nordeste 0 906.7 -0.3 49
2020-03-14 11:00:00 13 10 Nordeste 21 Nordeste 0 907.1 0.5 59
2020-03-14 10:00:00 10.3 5 Nordeste 12 Nordeste 0 907.1 0.9 73
2020-03-14 09:00:00 6 6 Nordeste 11 Norte 0 907 1.1 92
2020-03-14 08:00:00 2 4 Nordeste 10 Nordeste 0 906.6 1.2 97
2020-03-14 07:00:00 1.8 7 Nordeste 10 Norte 0 906.2 0.8 96
2020-03-14 06:00:00 2.3 6 Nordeste 10 Nordeste 0 905.9 0.2 95
2020-03-14 05:00:00 2.5 4 Nordeste 7 Norte 0 905.4 -0.6 94
2020-03-14 04:00:00 3.8 3 Norte 9 Este 0 905.4 -0.8 93
2020-03-14 03:00:00 4.4 4 Este 9 Norte 0 905.7 -0.1 92
2020-03-14 02:00:00 5.1 5 Nordeste 10 Nordeste 0 906 0.3 89
2020-03-14 01:00:00 4.7 3 Nordeste 6 Este 0 906.2 1 90
2020-03-14 00:00:00 5.9 0 Calma 8 Nordeste 0 905.8 0.8 85
2020-03-13 23:00:00 7.1 4 Nordeste 14 Nordeste 0 905.7 1.2 82
2020-03-13 22:00:00 8.2 8 Nordeste 16 Norte 0 905.2 1.2 78
2020-03-13 21:00:00 10.3 6 Nordeste 18 Norte 0 905 1.8 71
2020-03-13 20:00:00 11.4 11 Nordeste 21 Norte 0 904.5 1.6 66
2020-03-13 19:00:00 13.5 8 Nordeste 24 Nordeste 0 904 1.1 60
2020-03-13 18:00:00 15.5 9 Nordeste 27 Nordeste 0 903.2 0.1 56
2020-03-13 17:00:00 16.5 9 Nordeste 25 Nordeste 0 902.9 -1 55
2020-03-13 16:00:00 18 10 Nordeste 24 Norte 0 902.9 -1.7 51
2020-03-13 15:00:00 19.7 4 Oeste 17 Norte 0 903.1 -1.8 46
2020-03-13 14:00:00 17.5 9 Norte 22 Norte 0 903.9 -1.2 54
2020-03-13 13:00:00 15.3 11 Norte 24 Norte 0 904.6 -1.1 61
2020-03-13 12:00:00 15 8 Nordeste 24 Norte 0 904.9 -0.6 62
2020-03-13 11:00:00 12.5 12 Nordeste 28 Nordeste 0 905.1 0.4 70
2020-03-13 10:00:00 10 11 Nordeste 30 Nordeste 0 905.7 1.1 81
2020-03-13 09:00:00 8.8 11 Nordeste 24 Nordeste 0 905.5 1.2 88
2020-03-13 08:00:00 8.5 12 Nordeste 23 Norte 0 904.7 0.3 88
2020-03-13 07:00:00 8.1 10 Nordeste 18 Nordeste 0 904.6 0.3 88
2020-03-13 06:00:00 8.1 9 Nordeste 17 Nordeste 0 904.3 -0.5 91
2020-03-13 05:00:00 8 8 Nordeste 18 Nordeste 0 904.4 -0.7 92
2020-03-13 04:00:00 7.8 6 Nordeste 17 Nordeste 0 904.3 -0.7 91
2020-03-13 03:00:00 8.5 6 Nordeste 15 Nordeste 0 904.8 -0.3 90
2020-03-13 02:00:00 7.4 5 Nordeste 11 Norte 0 905.1 0.1 87
2020-03-13 01:00:00 6.7 4 Nordeste 11 Nordeste 0 905 0.1 83
2020-03-13 00:00:00 7.8 7 Norte 10 Norte 0 905.1 0.3 78
2020-03-12 23:00:00 8.7 4 Nordeste 8 Nordeste 0 905 0.4 75
2020-03-12 22:00:00 10 4 Norte 6 Nordeste 0 904.9 0.5 71
2020-03-12 21:00:00 11.9 4 Nordeste 6 Norte 0 904.8 0.8 65
2020-03-12 20:00:00 15 0 Calma 6 Sudoeste 0 904.6 0.5 53
2020-03-12 19:00:00 19 4 Sudoeste 14 Oeste 0 904.4 0 39
2020-03-12 18:00:00 21.6 6 Sudoeste 21 Oeste 0 904 -1 31
2020-03-12 17:00:00 23 10 Sudoeste 25 Sudoeste 0 904.1 -1.8 26
2020-03-12 16:00:00 24.1 11 Sudoeste 28 Sur 0 904.4 -2.5 24
2020-03-12 15:00:00 23.8 12 Sudoeste 27 Sur 0 905 -2.5 30
2020-03-12 14:00:00 23.1 11 Sudoeste 21 Sudoeste 0 905.9 -2 33
2020-03-12 13:00:00 22 10 Sudoeste 19 Sudoeste 0 906.9 -1.2 32
2020-03-12 12:00:00 21.2 6 Sudoeste 15 Sudoeste 0 907.5 -0.8 37
2020-03-12 11:00:00 17.4 4 Sur 8 Sudoeste 0 907.9 -0.3 53
2020-03-12 10:00:00 12.3 3 Este 7 Nordeste 0 908.1 0.1 73
2020-03-12 09:00:00 7.4 4 Nordeste 10 Norte 0 908.3 0.4 88
2020-03-12 08:00:00 2.4 3 Nordeste 9 Norte 0 908.2 0.2 96
2020-03-12 07:00:00 1.9 4 Norte 8 Norte 0 908 -0.6 94
2020-03-12 06:00:00 2.3 4 Norte 8 Norte 0 907.9 -1.2 94
2020-03-12 05:00:00 2.7 5 Norte 8 Norte 0 908 -1.3 94
2020-03-12 04:00:00 3.1 4 Nordeste 8 Norte 0 908.6 -0.8 92
2020-03-12 03:00:00 4 5 Norte 7 Norte 0 909.1 -0.8 90
2020-03-12 02:00:00 5 3 Nordeste 10 Nordeste 0 909.3 -0.7 89
2020-03-12 01:00:00 5.9 4 Nordeste 7 Nordeste 0 909.4 -0.5 86
2020-03-12 00:00:00 6.8 4 Nordeste 6 Norte 0 909.9 0.3 84
2020-03-11 23:00:00 8.1 4 Norte 8 Nordeste 0 910 0.5 80
2020-03-11 22:00:00 9.6 3 Nordeste 5 Nordeste 0 909.9 0.6 75
2020-03-11 21:00:00 12.1 4 Nordeste 9 Norte 0 909.6 0.7 67
2020-03-11 20:00:00 15.6 2 Norte 11 Sudoeste 0 909.5 0.8 54
2020-03-11 19:00:00 18.6 5 Sur 13 Sudoeste 0 909.3 0.5 46
2020-03-11 18:00:00 21.8 7 Sudoeste 19 Sudoeste 0 908.9 -0.4 32
2020-03-11 17:00:00 23.3 11 Sur 21 Sur 0 908.7 -1.2 31
2020-03-11 16:00:00 24.4 8 Sur 22 Sudoeste 0 908.8 -1.8 29
2020-03-11 15:00:00 23.7 7 Sudoeste 18 Sudoeste 0 909.3 -2 30
2020-03-11 14:00:00 22.7 7 Sur 20 Sur 0 909.9 -1.7 30
2020-03-11 13:00:00 21.7 10 Sudoeste 20 Sur 0 910.6 -1.1 34
2020-03-11 12:00:00 20.1 4 Sur 13 Oeste 0 911.3 -0.3 38
2020-03-11 11:00:00 16.4 5 Sudoeste 13 Sudoeste 0 911.6 0.2 53
2020-03-11 10:00:00 10.6 2 Este 6 Este 0 911.7 0.5 75
2020-03-11 09:00:00 5.3 3 Nordeste 9 Nordeste 0 911.6 0.6 90
2020-03-11 08:00:00 0.8 6 Nordeste 10 Norte 0 911.4 0.4 96
2020-03-11 07:00:00 0.5 4 Norte 9 Norte 0 911.2 0.4 95
2020-03-11 06:00:00 0.6 6 Norte 10 Norte 0 911 -0.4 95
2020-03-11 05:00:00 0.8 3 Norte 7 Norte 0 911 -0.9 93
2020-03-11 04:00:00 1.7 3 Norte 7 Nordeste 0 910.8 -1.3 94
2020-03-11 03:00:00 2.3 3 Nordeste 9 Nordeste 0 911.4 -0.6 92
2020-03-11 02:00:00 3 6 Nordeste 9 Nordeste 0 911.9 -0.3 90
2020-03-11 01:00:00 3.3 2 Nordeste 5 Norte 0 912.1 0 89
2020-03-11 00:00:00 4.2 3 Nordeste 5 Nordeste 0 912 0.2 86
2020-03-10 23:00:00 5.4 2 Nordeste 6 Nordeste 0 912.2 0.6 82
2020-03-10 22:00:00 7.1 3 Nordeste 7 Norte 0 912.1 0.9 78
2020-03-10 21:00:00 9.4 4 Nordeste 7 Nordeste 0 911.8 1 71
2020-03-10 20:00:00 13.1 3 Sur 8 Sur 0 911.6 0.7 56
2020-03-10 19:00:00 16.2 4 Sur 13 Sudoeste 0 911.2 0.2 47
2020-03-10 18:00:00 18.6 8 Sudoeste 19 Sudoeste 0 910.8 -0.6 40
2020-03-10 17:00:00 19.3 9 Sudoeste 23 Sur 0 910.9 -0.8 35
2020-03-10 16:00:00 19.9 12 Sudoeste 23 Sudoeste 0 911 -1 34
2020-03-10 15:00:00 20 7 Sudoeste 32 Sur 0 911.4 -1 33
2020-03-10 14:00:00 19.9 9 Sudoeste 18 Sudoeste 0 911.7 -1 34
2020-03-10 13:00:00 18.8 7 Sur 14 Sudoeste 0 912 -0.7 36
2020-03-10 12:00:00 16.1 9 Sur 17 Sudoeste 0 912.4 0.1 41
2020-03-10 11:00:00 13.1 4 Sur 12 Sudoeste 0 912.7 0.8 46
2020-03-10 10:00:00 9.9 8 Sudoeste 11 Sudoeste 0 912.7 0.9 58
2020-03-10 09:00:00 5.3 6 Sudoeste 14 Sudoeste 0 912.3 0.7 78
2020-03-10 08:00:00 1.9 2 Sur 4 Sur 0 911.9 0.6 89
2020-03-10 07:00:00 1.7 3 Sudoeste 8 Sudoeste 0 911.8 0.8 88
2020-03-10 06:00:00 0.9 0 Calma 3 Norte 0 911.6 0.1 89
2020-03-10 05:00:00 0.6 2 Norte 4 Norte 0 911.3 -0.2 87
2020-03-10 04:00:00 1.1 0 Calma 4 Nordeste 0 911 -0.5 85
2020-03-10 03:00:00 2.7 2 Este 5 Este 0 911.5 -0.1 76
2020-03-10 02:00:00 5.6 3 Nordeste 7 Oeste 0 911.5 0 61
2020-03-10 01:00:00 6 3 Noroeste 14 Norte 0 911.5 -0.1 61
2020-03-10 00:00:00 6 3 Noroeste 13 Noroeste 0 911.6 0.1 65
2020-03-09 23:00:00 5.1 3 Oeste 10 Norte 0 911.5 0.6 70
2020-03-09 22:00:00 5.1 2 Norte 8 Nordeste 0 911.6 0.9 70
2020-03-09 21:00:00 6.7 3 Este 9 Sudoeste 0 911.5 1.3 62
2020-03-09 20:00:00 7.8 4 Sudoeste 11 Noroeste 0 910.9 1 57
2020-03-09 19:00:00 9.9 5 Noroeste 27 Noroeste 0 910.7 0.9 46
2020-03-09 18:00:00 12.1 9 Noroeste 36 Norte 0 910.2 -0.3 40
2020-03-09 17:00:00 12.7 12 Noroeste 37 Noroeste 0 909.9 -0.5 39
2020-03-09 16:00:00 12.9 13 Noroeste 31 Noroeste 0 909.8 -1.4 40
2020-03-09 15:00:00 13 17 Noroeste 37 Noroeste 0 910.5 -1.1 40
2020-03-09 14:00:00 12.1 15 Noroeste 38 Noroeste 0 910.4 -1.3 44
2020-03-09 13:00:00 11.3 15 Norte 32 Norte 0 911.2 -0.5 46
2020-03-09 12:00:00 9.7 11 Noroeste 35 Noroeste 0 911.6 0.4 57
2020-03-09 11:00:00 7.5 11 Noroeste 27 Noroeste 0 911.7 0.9 68
2020-03-09 10:00:00 6.3 7 Noroeste 24 Norte 0 911.7 1.4 74
2020-03-09 09:00:00 5.2 7 Noroeste 16 Norte 0 911.2 1.2 79
2020-03-09 08:00:00 4.8 5 Oeste 22 Noroeste 0 910.8 0.9 79
2020-03-09 07:00:00 4.8 8 Noroeste 27 Noroeste 0 910.3 0.8 78
2020-03-09 06:00:00 5.6 8 Noroeste 28 Noroeste 0 910 0.4 77
2020-03-09 05:00:00 6.2 9 Noroeste 28 Oeste 0 909.9 -0.1 75
2020-03-09 04:00:00 6.7 2 Noroeste 27 Sudoeste 0 909.5 -0.4 74
2020-03-09 03:00:00 7.8 7 Oeste 29 Oeste 0 909.6 -0.1 73
2020-03-09 02:00:00 8 8 Oeste 26 Oeste 0 910 -0.1 74
2020-03-09 01:00:00 7.4 5 Sudoeste 20 Oeste 0 909.9 -0.1 82
2020-03-09 00:00:00 2.2 3 Oeste 13 Noroeste 0 909.7 0.2 95
2020-03-08 23:00:00 0.8 3 Nordeste 10 Norte 0 910.1 0.7 90
2020-03-08 22:00:00 1.7 4 Nordeste 7 Norte 0 910 1 87
2020-03-08 21:00:00 4.2 0 Calma 5 Sur 0 909.5 0.7 77
2020-03-08 20:00:00 6.8 3 Sudoeste 6 Sudoeste 0 909.4 0.5 70
2020-03-08 19:00:00 10.2 5 Sur 15 Oeste 0 909 0.4 59
2020-03-08 18:00:00 11.4 8 Sudoeste 18 Sur 0 908.8 0.1 54
2020-03-08 17:00:00 12.1 4 Oeste 19 Oeste 0 908.9 -0.1 46
2020-03-08 16:00:00 13 10 Sudoeste 24 Sudoeste 0 908.6 -1.4 42
2020-03-08 15:00:00 13.7 9 Sudoeste 18 Sur 0 908.7 -1.8 38
2020-03-08 14:00:00 13.6 8 Sudoeste 17 Sudoeste 0 909 -1.8 40
2020-03-08 13:00:00 13 4 Oeste 20 Oeste 0 910 -1 43
2020-03-08 12:00:00 11.7 10 Sudoeste 19 Sudoeste 0 910.5 -0.7 51
2020-03-08 11:00:00 9 9 Sur 16 Sudoeste 0 910.8 0.4 64
2020-03-08 10:00:00 3.6 2 Nordeste 7 Norte 0 911 0.9 87
2020-03-08 09:00:00 -1 5 Nordeste 8 Nordeste 0 911.2 1.2 95
2020-03-08 08:00:00 -4.3 3 Nordeste 8 Norte 0 910.4 0.5 96
2020-03-08 07:00:00 -4.3 3 Nordeste 7 Norte 0 910.1 0.1 95
2020-03-08 06:00:00 -3.7 2 Nordeste 5 Norte 0 910 -0.2 96
2020-03-08 05:00:00 -3.3 3 Norte 9 Norte 0 909.9 -0.4 96
2020-03-08 04:00:00 -2.9 0 Calma 4 Nordeste 0 910 -0.8 94
2020-03-08 03:00:00 -2 0 Calma 6 Noroeste 0 910.2 -1.3 95
2020-03-08 02:00:00 -0.9 3 Noroeste 11 Norte 0 910.3 -1.2 95
2020-03-08 01:00:00 -0.7 5 Nordeste 11 Noroeste 0 910.8 -0.6 94
2020-03-08 00:00:00 0.1 5 Nordeste 10 Norte 0 911.5 0.3 92
2020-03-07 23:00:00 1.1 3 Norte 8 Nordeste 0 911.5 0.7 89
2020-03-07 22:00:00 2.9 2 Este 9 Norte 0 911.4 1 82
2020-03-07 21:00:00 5.7 2 Norte 17 Noroeste 0 911.2 1.2 73
2020-03-07 20:00:00 6.9 8 Noroeste 15 Noroeste 0 910.8 1 69
2020-03-07 19:00:00 8.5 8 Noroeste 24 Noroeste 0 910.4 0.9 62
2020-03-07 18:00:00 10.5 8 Noroeste 32 Noroeste 0 910 0.3 55
2020-03-07 17:00:00 10.8 14 Noroeste 31 Norte 0 909.8 -0.2 55
2020-03-07 16:00:00 12 14 Noroeste 32 Norte 0 909.5 -1.2 53
2020-03-07 15:00:00 10.6 11 Noroeste 31 Noroeste 0 909.7 -0.9 56
2020-03-07 14:00:00 9.6 13 Noroeste 33 Norte 0 910 -0.6 60
2020-03-07 13:00:00 10 16 Noroeste 38 Noroeste 0 910.7 0.2 57
2020-03-07 12:00:00 8.6 15 Noroeste 36 Noroeste 0 910.6 0.8 61
2020-03-07 11:00:00 7.6 13 Noroeste 35 Noroeste 0 910.6 1.1 66
2020-03-07 10:00:00 6.5 18 Noroeste 37 Noroeste 0 910.5 1.6 71
2020-03-07 09:00:00 3.7 12 Noroeste 25 Noroeste 0 909.8 1.5 72
2020-03-07 08:00:00 1.1 3 Oeste 12 Oeste 0 909.5 1.3 76
2020-03-07 07:00:00 1.5 5 Oeste 15 Oeste 0 908.9 0.8 74
2020-03-07 06:00:00 0.9 3 Sudoeste 13 Noroeste 0 908.3 -0.2 81
2020-03-07 05:00:00 0.1 5 Noroeste 9 Noroeste 0 908.2 -0.5 84
2020-03-07 04:00:00 -0.3 2 Sudeste 9 Sudoeste 0 908.1 -0.4 85
2020-03-07 03:00:00 1.2 5 Sudoeste 17 Sudoeste 0 908.5 0.2 80
2020-03-07 02:00:00 1.5 6 Oeste 22 Noroeste 0 908.7 0.6 78
2020-03-07 01:00:00 1.4 2 Oeste 9 Sudoeste 0 908.5 0.7 77
2020-03-07 00:00:00 2.4 2 Oeste 25 Noroeste 0 908.3 1.3 69
2020-03-06 23:00:00 2.4 4 Oeste 30 Noroeste 0 908.1 2.1 68
2020-03-06 22:00:00 3 7 Norte 26 Noroeste 0 907.8 2.5 67
2020-03-06 21:00:00 3.4 13 Norte 32 Norte 0 907 2.7 66
2020-03-06 20:00:00 4.3 8 Norte 30 Noroeste 0 906 2.5 60
2020-03-06 19:00:00 5.4 10 Noroeste 34 Noroeste 0 905.3 2.3 52
2020-03-06 18:00:00 6.4 9 Oeste 39 Noroeste 0 904.3 1.8 46
2020-03-06 17:00:00 7.1 9 Oeste 38 Noroeste 0 903.5 0.7 46
2020-03-06 16:00:00 6.9 9 Oeste 40 Noroeste 0 903 0.5 48
2020-03-06 15:00:00 6.7 15 Noroeste 44 Noroeste 0 902.5 0.5 53
2020-03-06 14:00:00 6.3 14 Norte 49 Norte 0 902.8 1 66
2020-03-06 13:00:00 6.2 15 Noroeste 46 Norte 0 902.5 1.4 52
2020-03-06 12:00:00 6.6 15 Oeste 49 Oeste 0 902 1.7 58
2020-03-06 11:00:00 5.5 14 Oeste 45 Sudoeste 0 901.8 2 62
2020-03-06 10:00:00 6 12 Oeste 44 Oeste 0 901.1 2.1 56
2020-03-06 09:00:00 4.5 11 Oeste 41 Oeste 0 900.3 1.6 65
2020-03-06 08:00:00 3.7 11 Sudoeste 30 Sudoeste 0 899.8 1.1 65
2020-03-06 07:00:00 3.2 7 Sudoeste 26 Sur 0 899 0 89
2020-03-06 06:00:00 3.2 8 Sudoeste 22 Sudoeste 0 898.7 -1 87
2020-03-06 05:00:00 3.6 11 Sudoeste 32 Sudoeste 0 898.7 -1.3 82
2020-03-06 04:00:00 2.8 8 Sudoeste 19 Sudoeste 0 899 -1.2 84
2020-03-06 03:00:00 3.2 5 Oeste 17 Oeste 0 899.7 -0.6 88
2020-03-06 02:00:00 4.3 5 Sudoeste 21 Oeste 0 900 -0.5 83
2020-03-06 01:00:00 5.4 9 Oeste 24 Oeste 0 900.2 -0.2 74
2020-03-06 00:00:00 5 7 Sudoeste 21 Noroeste 0 900.3 0.3 79
2020-03-05 23:00:00 6.1 8 Oeste 22 Oeste 0 900.5 0.9 72
2020-03-05 22:00:00 5.8 5 Sudoeste 18 Sudoeste 0 900.4 1.8 83
2020-03-05 21:00:00 6 8 Sudoeste 22 Sudoeste 0 900 2.1 84
2020-03-05 20:00:00 6.1 7 Sudoeste 29 Oeste 0.8 899.6 1.6 83
2020-03-05 19:00:00 9.4 9 Sudoeste 27 Sudoeste 0 898.6 0.8 58
2020-03-05 18:00:00 10.4 9 Sudoeste 40 Sudoeste 0 897.9 0.2 52
2020-03-05 17:00:00 10.4 14 Oeste 41 Oeste 0 898 0.6 51
2020-03-05 16:00:00 11.1 14 Oeste 38 Sudoeste 0 897.8 0.3 50
2020-03-05 15:00:00 11.3 13 Oeste 39 Noroeste 0 897.7 0.5 48
2020-03-05 14:00:00 12.4 14 Oeste 39 Oeste 0 897.4 0.6 49
2020-03-05 13:00:00 9.7 15 Sudoeste 32 Oeste 0 897.5 0.5 71
2020-03-05 12:00:00 9.1 16 Sudoeste 41 Sudoeste 2.6 897.2 -0.5 92
2020-03-05 11:00:00 8.8 17 Sudoeste 44 Sudoeste 0.2 896.8 -0.7 92
2020-03-05 10:00:00 8.6 18 Sudoeste 41 Sudoeste 0 897 -0.8 93
2020-03-05 09:00:00 8.5 19 Sudoeste 43 Sudoeste 0.4 897.7 -1.1 94
2020-03-05 08:00:00 8.3 12 Sudoeste 42 Sudoeste 0 897.5 -2 94
2020-03-05 07:00:00 8 10 Sudoeste 31 Sudoeste 0 897.8 -2 92
2020-03-05 06:00:00 7.6 13 Sudoeste 28 Sudoeste 0 898.8 -3 93
2020-03-05 05:00:00 7.2 9 Sudoeste 22 Sur 0 899.5 -2.7 92
2020-03-05 04:00:00 6.7 2 Sur 15 Sudoeste 0 899.8 -3.4 90
2020-03-05 03:00:00 6.4 3 Oeste 10 Sudeste 0 901.8 -1.9 88
2020-03-05 02:00:00 6.2 3 Nordeste 17 Sudoeste 0 902.2 -2 85
2020-03-05 01:00:00 4.6 4 Sur 7 Sudoeste 0 903.2 -1.3 92
2020-03-05 00:00:00 4.8 0 Calma 5 Sudoeste 0 903.7 -1.5 88
2020-03-04 23:00:00 6.1 6 Sudoeste 8 Sudoeste 0 904.2 -0.9 85
2020-03-04 22:00:00 7.6 0 Calma 4 Sur 0 904.5 -0.2 80
2020-03-04 21:00:00 9.6 4 Sudoeste 13 Sudoeste 0 905.2 0.8 73
2020-03-04 20:00:00 9.7 0 Calma 14 Noroeste 0 905.1 0.6 71
2020-03-04 19:00:00 11.3 7 Noroeste 22 Noroeste 0 904.7 -0.2 61
2020-03-04 18:00:00 13.8 7 Noroeste 23 Noroeste 0 904.4 -1.1 56
2020-03-04 17:00:00 14.4 7 Oeste 32 Noroeste 0 904.5 -1.3 54
2020-03-04 16:00:00 14.8 10 Noroeste 32 Norte 0 904.9 -1.3 54
2020-03-04 15:00:00 14.2 11 Noroeste 32 Norte 0 905.5 -1.1 55
2020-03-04 14:00:00 13.8 12 Noroeste 33 Noroeste 0 905.8 -1 58
2020-03-04 13:00:00 14.4 7 Oeste 19 Oeste 0 906.2 -0.4 54
2020-03-04 12:00:00 13.2 9 Sudoeste 21 Sudoeste 0 906.6 0.2 61
2020-03-04 11:00:00 11.8 6 Noroeste 17 Sudoeste 0 906.8 1 72
2020-03-04 10:00:00 10.5 9 Sudoeste 18 Sudoeste 0 906.6 2 83
2020-03-04 09:00:00 9.5 5 Sudoeste 16 Sudoeste 0 906.4 1.5 91
2020-03-04 08:00:00 9.5 5 Oeste 19 Oeste 0 905.8 1.1 90
2020-03-04 07:00:00 9.5 9 Sudoeste 20 Sudoeste 0 904.6 0 92
2020-03-04 06:00:00 9.6 8 Sudoeste 18 Oeste 0 904.9 -0.1 92
2020-03-04 05:00:00 9 5 Sur 15 Sur 0.4 904.7 -0.4 92
2020-03-04 04:00:00 10.5 5 Sur 14 Sudoeste 0 904.6 -0.1 80
2020-03-04 03:00:00 10 4 Sudoeste 19 Oeste 0 905 0.4 78
2020-03-04 02:00:00 8 4 Oeste 16 Sudoeste 0 905.1 0.5 75
2020-03-04 01:00:00 9.2 5 Sudoeste 16 Sur 0 904.7 0.8 59
2020-03-04 00:00:00 8.7 5 Sudoeste 20 Sur 0 904.6 1.6 64
2020-03-03 23:00:00 8.4 2 Sudoeste 17 Sudoeste 0 904.6 2.3 71
2020-03-03 22:00:00 9.6 4 Sudoeste 14 Sudoeste 0 903.9 2.3 69
2020-03-03 21:00:00 11.4 9 Sudoeste 26 Sudoeste 0 903 2.3 62
2020-03-03 20:00:00 12.3 10 Sudoeste 34 Oeste 0 902.3 2.3 59
2020-03-03 19:00:00 13.3 11 Sudoeste 43 Sudoeste 0 901.6 2 52
2020-03-03 18:00:00 14.7 13 Oeste 49 Oeste 0 900.7 1.3 49
2020-03-03 17:00:00 15.6 12 Oeste 50 Oeste 0 900 0.7 48
2020-03-03 16:00:00 14.3 15 Oeste 52 Oeste 0 899.6 -0.7 50
2020-03-03 15:00:00 13.1 15 Sudoeste 44 Sur 0 899.4 -1 68
2020-03-03 14:00:00 12.3 27 Sur 44 Sur 0.2 899.3 -1.2 75
2020-03-03 13:00:00 8.1 13 Sudoeste 30 Sur 0 900.3 -0.3 85
2020-03-03 12:00:00 6.3 11 Sudoeste 33 Sur 0 900.4 -0.4 87
2020-03-03 11:00:00 4.7 17 Sudoeste 38 Sudoeste 0 900.5 -0.3 87
2020-03-03 10:00:00 3.9 12 Sudoeste 31 Sudoeste 0 900.6 0 87
2020-03-03 09:00:00 2.9 12 Sudoeste 29 Sur 0.2 900.8 -0.5 90
2020-03-03 08:00:00 2.8 8 Sudoeste 20 Sudoeste 0.4 900.8 -0.5 89
2020-03-03 07:00:00 2 6 Sudoeste 19 Sudoeste 0.2 900.6 -1.2 91
2020-03-03 06:00:00 2.2 5 Sudoeste 20 Sudoeste 0 901.3 -1.1 84
2020-03-03 05:00:00 2.3 3 Sudoeste 13 Sudoeste 0 901.3 -1.4 78
2020-03-03 04:00:00 2.7 7 Sudoeste 27 Sudoeste 0 901.8 -0.6 76
2020-03-03 03:00:00 2.7 13 Sudoeste 26 Sudoeste 0 902.4 0.1 74
2020-03-03 02:00:00 2.1 2 Sur 15 Sur 0 902.7 0.6 77
2020-03-03 01:00:00 3.2 7 Sudoeste 24 Oeste 0 902.4 0.9 69
2020-03-03 00:00:00 3.4 7 Oeste 21 Sudoeste 0 902.3 1 66
2020-03-02 23:00:00 3 9 Sudoeste 23 Sudoeste 0 902.1 1.1 64
2020-03-02 22:00:00 2.5 5 Sudoeste 14 Sudoeste 0 901.5 2 69
2020-03-02 21:00:00 3 8 Sudoeste 22 Sudoeste 0 901.3 3.5 65
2020-03-02 20:00:00 3.8 8 Sudoeste 29 Oeste 0 901 2.9 60
2020-03-02 19:00:00 4.7 10 Oeste 46 Oeste 0 899.5 3.7 55
2020-03-02 18:00:00 4.8 4 Oeste 31 Norte 0.2 897.8 3 70
2020-03-02 17:00:00 3 19 Norte 49 Norte 0 898.1 3.6 79
2020-03-02 16:00:00 6.1 14 Oeste 58 Noroeste 0 895.8 1.4 67
2020-03-02 15:00:00 7 19 Oeste 51 Sudoeste 0 894.8 1.3 59
2020-03-02 14:00:00 4.1 14 Sudoeste 48 Oeste 0.2 894.5 1.6 81
2020-03-02 13:00:00 4.6 21 Sudoeste 50 Oeste 0 894.4 2.3 77
2020-03-02 12:00:00 6.5 14 Oeste 52 Sudoeste 0 893.5 2.6 69
2020-03-02 11:00:00 4.9 12 Sudoeste 57 Sudoeste 0.2 892.9 3.4 80
2020-03-02 10:00:00 7.1 17 Oeste 57 Sudoeste 0 892.1 4.6 64
2020-03-02 09:00:00 6 11 Sudoeste 45 Sudoeste 0.2 890.9 5.5 71
2020-03-02 08:00:00 6 12 Oeste 63 Oeste 0.2 889.5 3.5 78
2020-03-02 07:00:00 7.4 10 Oeste 72 Sudoeste 2.2 887.5 0.8 83
2020-03-02 06:00:00 8.5 34 Sudoeste 74 Sudoeste 1.2 885.4 -2.6 93
2020-03-02 05:00:00 8.4 27 Sudoeste 68 Sudoeste 0 886 -3.1 92
2020-03-02 04:00:00 8.5 27 Sudoeste 74 Sur 0.2 886.7 -3.5 91
2020-03-02 03:00:00 8.6 29 Sudoeste 75 Sudoeste 2.6 888 -3.7 91
2020-03-02 02:00:00 9 31 Sudoeste 73 Sur 3.2 889.1 -4 92
2020-03-02 01:00:00 8.9 30 Sudoeste 81 Sudoeste 2.4 890.2 -4.3 91
2020-03-02 00:00:00 9.2 30 Sudoeste 69 Sudoeste 1.2 891.7 -4 90
2020-03-01 23:00:00 9.2 30 Sudoeste 70 Sur 1.2 893.1 -3.3 88
2020-03-01 22:00:00 9.2 32 Sudoeste 55 Sudoeste 0.6 894.5 -2.2 90
2020-03-01 21:00:00 9.4 25 Sudoeste 50 Sudoeste 0 895.7 -1.5 86
2020-03-01 20:00:00 9.6 15 Sudoeste 40 Sudoeste 0 896.4 -0.8 85
2020-03-01 19:00:00 9.3 10 Sudoeste 35 Sur 0.8 896.7 -1.1 88
2020-03-01 18:00:00 9.6 12 Sudoeste 48 Sudoeste 0.8 897.2 -1.1 84
2020-03-01 17:00:00 10.2 22 Sudoeste 46 Sur 0.2 897.2 -2 80
2020-03-01 16:00:00 10.7 17 Sudoeste 41 Sudoeste 0 897.8 -2.2 74
2020-03-01 15:00:00 9.8 17 Sudoeste 40 Sudoeste 0 898.3 -1.6 79
2020-03-01 14:00:00 8 13 Sudoeste 36 Sudoeste 0.2 899.2 -0.6 90
2020-03-01 13:00:00 7.9 18 Sudoeste 39 Sudoeste 0 900 0.5 87
2020-03-01 12:00:00 8.4 19 Sudoeste 41 Sur 0 899.9 0.9 89
2020-03-01 11:00:00 6.7 13 Sudoeste 35 Sudoeste 0 899.8 0.9 93
2020-03-01 10:00:00 6 15 Sudoeste 38 Sudoeste 0.2 899.5 0.5 94
2020-03-01 09:00:00 5.8 19 Sudoeste 34 Sur 0 899 0.3 92
2020-03-01 08:00:00 5.6 11 Sudoeste 32 Sudoeste 0 898.9 0.8 90
2020-03-01 07:00:00 5.6 14 Sudoeste 33 Sudoeste 0 899 0.4 89
2020-03-01 06:00:00 5.9 8 Sudoeste 23 Sudoeste 0 898.7 -0.1 86
2020-03-01 05:00:00 6 12 Sudoeste 28 Sudoeste 0 898.1 -1.2 82
2020-03-01 04:00:00 6 8 Sudoeste 29 Sudoeste 0 898.6 -0.7 83
2020-03-01 03:00:00 6.2 10 Sudoeste 21 Sudoeste 0 898.8 -1 79
2020-03-01 02:00:00 6.4 8 Sudoeste 19 Sudoeste 0 899.3 -0.6 76
2020-03-01 01:00:00 6.4 13 Sudoeste 22 Sur 0 899.3 -0.1 74
2020-03-01 00:00:00 6.8 8 Sudoeste 19 Sudoeste 0 899.8 0.8 72
2020-02-29 23:00:00 6.5 4 Sudoeste 27 Sudoeste 0 899.9 1.3 72
2020-02-29 22:00:00 8 12 Sudoeste 38 Sudoeste 0 899.4 1.3 65
2020-02-29 21:00:00 8.9 13 Sudoeste 32 Sudoeste 0 899 1.2 83
2020-02-29 20:00:00 9.2 15 Sudoeste 43 Sudoeste 0 898.6 1.1 84
2020-02-29 19:00:00 9.4 16 Sudoeste 50 Sudoeste 0 898.1 0.6 82
2020-02-29 18:00:00 9.8 18 Sudoeste 44 Sudoeste 0 897.8 -0.1 80
2020-02-29 17:00:00 10.4 17 Sudoeste 36 Sudoeste 0 897.5 -1.1 75
2020-02-29 16:00:00 10.1 17 Sudoeste 37 Sudoeste 0 897.5 -1.6 75
2020-02-29 15:00:00 9.1 15 Sudoeste 40 Sudoeste 0 897.9 -1.7 78
2020-02-29 14:00:00 8 15 Sudoeste 43 Sudoeste 0 898.6 -0.9 83
2020-02-29 13:00:00 7.3 16 Sudoeste 47 Sudoeste 0 899.1 0.3 87
2020-02-29 12:00:00 6.6 20 Sudoeste 46 Sudoeste 0 899.6 0.9 86
2020-02-29 11:00:00 7.7 30 Sudoeste 50 Sudoeste 0 899.5 1.1 75
2020-02-29 10:00:00 8.1 23 Sudoeste 49 Sudoeste 0 898.8 0 67
2020-02-29 09:00:00 6.9 17 Sudoeste 35 Sudoeste 0 898.7 0 70
2020-02-29 08:00:00 5.3 10 Sudoeste 25 Sudoeste 0 898.4 -0.5 77
2020-02-29 07:00:00 5 5 Sudoeste 26 Sur 0 898.8 -0.2 77
2020-02-29 06:00:00 5.8 11 Sudoeste 21 Sur 0 898.7 -1 71
2020-02-29 05:00:00 6.2 6 Sudoeste 19 Sudoeste 0 898.9 -1.3 65
2020-02-29 04:00:00 6.5 10 Sudoeste 21 Sudoeste 0 899 -2.3 64
2020-02-29 03:00:00 0.9 3 Sudeste 6 Sur 0 899.7 -2.2 84
2020-02-29 02:00:00 0.7 4 Norte 10 Norte 0 900.2 -2.4 82
2020-02-29 01:00:00 0.6 0 Calma 6 Nordeste 0 901.3 -1.5 81
2020-02-29 00:00:00 1.9 2 Norte 6 Norte 0 901.9 -0.7 79